Time;durP1;ratioP1;P1;durP2;ratioP2;P2;SDS_P1;SDS_P2;PMS_P1;PMS_P2;Temp;Humidity;BMP_temperature;BMP_pressure;BME280_temperature;BME280_humidity;BME280_pressure;Samples;Min_cycle;Max_cycle;Signal;HPM_P1;HPM_P2
2020/12/09 00:00:10;;;;;;;3.40;1.30;;;23.60;25.20;;;;;;5073040;28;20515;-68
2020/12/09 00:02:36;;;;;;;6.30;1.45;;;23.50;26.60;;;;;;5072645;28;20036;-68
2020/12/09 00:05:09;;;;;;;6.25;1.70;;;23.50;26.50;;;;;;5071404;28;20028;-68
2020/12/09 00:07:36;;;;;;;3.55;1.30;;;23.40;26.50;;;;;;5073747;28;20029;-68
2020/12/09 00:10:05;;;;;;;8.60;1.33;;;23.30;26.80;;;;;;5074504;28;20016;-68
2020/12/09 00:12:31;;;;;;;4.97;1.50;;;23.20;26.70;;;;;;5070851;28;20078;-68
2020/12/09 00:14:58;;;;;;;8.00;1.40;;;23.10;26.60;;;;;;5068912;28;20063;-68
2020/12/09 00:17:25;;;;;;;2.67;1.48;;;22.90;26.60;;;;;;5068390;28;20024;-67
2020/12/09 00:19:51;;;;;;;3.95;1.52;;;22.80;26.90;;;;;;5072137;28;20020;-68
2020/12/09 00:22:18;;;;;;;3.95;1.85;;;22.60;27.00;;;;;;5072912;28;20060;-67
2020/12/09 00:24:44;;;;;;;5.95;1.70;;;22.40;26.40;;;;;;5072755;28;20066;-68
2020/12/09 00:27:11;;;;;;;15.05;1.58;;;22.00;26.80;;;;;;5075495;28;20021;-67
2020/12/09 00:29:37;;;;;;;13.23;3.13;;;21.80;27.00;;;;;;5075216;28;20059;-68
2020/12/09 00:32:04;;;;;;;10.45;2.45;;;21.60;27.10;;;;;;5073010;28;20032;-68
2020/12/09 00:34:31;;;;;;;5.13;1.70;;;21.40;27.20;;;;;;5072112;28;20039;-67
2020/12/09 00:36:57;;;;;;;10.65;1.98;;;21.30;27.70;;;;;;5072876;28;20025;-68
2020/12/09 00:39:24;;;;;;;9.23;2.10;;;21.20;27.60;;;;;;5070502;28;20028;-69
2020/12/09 00:41:50;;;;;;;4.70;1.52;;;21.00;27.40;;;;;;5075755;28;20489;-68
2020/12/09 00:44:17;;;;;;;4.35;1.38;;;20.80;27.50;;;;;;5074345;28;20024;-68
2020/12/09 00:46:43;;;;;;;7.05;1.70;;;20.60;27.70;;;;;;5073797;28;20040;-67
2020/12/09 00:49:10;;;;;;;7.35;1.40;;;20.40;27.80;;;;;;5072474;28;20473;-68
2020/12/09 00:51:36;;;;;;;3.10;1.58;;;20.20;27.80;;;;;;5072221;28;20025;-68
2020/12/09 00:54:02;;;;;;;6.07;1.90;;;20.00;27.90;;;;;;5067543;28;20376;-68
2020/12/09 00:56:29;;;;;;;6.50;1.60;;;19.80;28.00;;;;;;5070003;28;20138;-68
2020/12/09 00:58:55;;;;;;;3.70;2.22;;;19.80;28.00;;;;;;5069983;28;20457;-68
2020/12/09 01:01:22;;;;;;;12.18;1.80;;;19.60;28.10;;;;;;5073876;28;20129;-68
2020/12/09 01:03:48;;;;;;;5.22;1.85;;;19.50;28.20;;;;;;5073699;28;20119;-67
2020/12/09 01:06:14;;;;;;;6.20;1.73;;;19.30;28.30;;;;;;5069250;28;20470;-69
2020/12/09 01:08:41;;;;;;;3.60;1.45;;;19.10;28.50;;;;;;5067398;28;20028;-67
2020/12/09 01:11:07;;;;;;;6.07;1.55;;;18.80;28.70;;;;;;5069624;28;20103;-68
2020/12/09 01:13:35;;;;;;;4.53;1.75;;;18.40;29.30;;;;;;5072324;28;20063;-68
2020/12/09 01:16:01;;;;;;;6.10;1.80;;;18.20;29.50;;;;;;5069938;28;20533;-68
2020/12/09 01:18:28;;;;;;;2.78;1.70;;;18.20;29.40;;;;;;5073125;28;20047;-68
2020/12/09 01:20:54;;;;;;;2.83;1.30;;;18.10;29.80;;;;;;5072418;28;20028;-68
2020/12/09 01:23:21;;;;;;;2.95;1.65;;;18.00;29.70;;;;;;5075906;28;20408;-68
2020/12/09 01:25:47;;;;;;;2.75;1.52;;;17.90;29.80;;;;;;5080229;28;20035;-69
2020/12/09 01:28:13;;;;;;;3.13;1.70;;;17.90;29.70;;;;;;5071201;28;20021;-69
2020/12/09 01:30:40;;;;;;;7.35;1.60;;;17.70;29.80;;;;;;5073528;28;20021;-69
2020/12/09 01:33:06;;;;;;;4.13;1.88;;;17.60;29.70;;;;;;5070316;28;20454;-68
2020/12/09 01:35:33;;;;;;;6.68;2.47;;;17.50;29.90;;;;;;5073234;28;20028;-69
2020/12/09 01:37:59;;;;;;;8.30;1.83;;;17.40;30.00;;;;;;5072091;28;20016;-68
2020/12/09 01:40:25;;;;;;;4.68;1.70;;;17.30;30.30;;;;;;5071255;28;20146;-68
2020/12/09 01:42:52;;;;;;;8.00;2.63;;;17.20;30.30;;;;;;5071828;28;20060;-68
2020/12/09 01:45:19;;;;;;;7.05;2.45;;;17.00;30.50;;;;;;5072728;28;20107;-68
2020/12/09 01:47:46;;;;;;;5.47;2.00;;;16.90;30.30;;;;;;5071768;28;20470;-68
2020/12/09 01:50:14;;;;;;;8.18;2.20;;;16.80;30.60;;;;;;5074946;28;20036;-68
2020/12/09 01:52:41;;;;;;;10.65;1.98;;;16.80;30.30;;;;;;5063017;28;20338;-68
2020/12/09 01:55:08;;;;;;;8.68;1.95;;;16.90;30.10;;;;;;5070538;28;20020;-69
2020/12/09 01:57:35;;;;;;;6.30;1.90;;;16.70;30.30;;;;;;5070486;28;20449;-68
2020/12/09 02:00:02;;;;;;;10.35;2.67;;;16.40;31.00;;;;;;5068516;28;20449;-68
2020/12/09 02:02:28;;;;;;;7.63;2.72;;;16.20;30.90;;;;;;5072540;28;20024;-68
2020/12/09 02:04:56;;;;;;;7.10;2.83;;;16.20;31.10;;;;;;5071063;28;20028;-68
2020/12/09 02:07:26;;;;;;;6.65;2.55;;;16.10;31.10;;;;;;5069509;28;20050;-68
2020/12/09 02:10:06;;;;;;;7.25;2.35;;;16.20;30.70;;;;;;5071008;28;20020;-67
2020/12/09 02:12:34;;;;;;;5.15;3.05;;;16.20;30.60;;;;;;5072180;28;20357;-67
2020/12/09 02:15:01;;;;;;;6.07;2.63;;;16.20;30.90;;;;;;5072873;28;20052;-69
2020/12/09 02:17:28;;;;;;;5.15;3.00;;;16.30;31.00;;;;;;5071079;28;20028;-69
2020/12/09 02:19:54;;;;;;;7.68;2.38;;;16.20;30.80;;;;;;5067600;28;20093;-69
2020/12/09 02:22:21;;;;;;;17.92;3.88;;;16.10;31.00;;;;;;5075238;28;20056;-69
2020/12/09 02:24:47;;;;;;;7.03;2.53;;;16.00;31.10;;;;;;5072515;28;20032;-69
2020/12/09 02:27:14;;;;;;;7.10;2.60;;;16.10;31.50;;;;;;5074952;28;20024;-69
2020/12/09 02:29:40;;;;;;;4.38;2.20;;;16.20;31.20;;;;;;5068552;28;20513;-69
2020/12/09 02:32:07;;;;;;;3.58;2.05;;;16.20;31.10;;;;;;5070597;28;20086;-69
2020/12/09 02:34:33;;;;;;;4.30;2.10;;;16.10;31.20;;;;;;5072732;28;20119;-69
2020/12/09 02:37:00;;;;;;;11.63;2.50;;;16.00;31.40;;;;;;5072651;28;20032;-69
2020/12/09 02:39:37;;;;;;;3.50;2.13;;;16.10;31.70;;;;;;5068509;28;20051;-69
2020/12/09 02:42:05;;;;;;;8.68;2.10;;;16.20;31.70;;;;;;5072973;28;20099;-69
2020/12/09 02:44:32;;;;;;;3.95;1.88;;;16.20;31.50;;;;;;5067509;28;20020;-69
2020/12/09 02:46:58;;;;;;;5.88;1.88;;;16.00;31.80;;;;;;5068733;28;20039;-69
2020/12/09 02:49:25;;;;;;;4.50;2.10;;;15.80;32.00;;;;;;5070497;28;20031;-69
2020/12/09 02:51:52;;;;;;;4.88;2.08;;;15.70;32.00;;;;;;5068621;28;20028;-69
2020/12/09 02:54:19;;;;;;;6.43;2.67;;;15.60;32.20;;;;;;5066883;28;20024;-69
2020/12/09 02:56:45;;;;;;;7.28;1.90;;;15.70;32.00;;;;;;5071337;28;20023;-69
2020/12/09 02:59:13;;;;;;;8.02;2.00;;;15.80;31.80;;;;;;5071854;28;20028;-69
2020/12/09 03:01:39;;;;;;;2.80;2.08;;;15.80;31.70;;;;;;5071992;28;20462;-69
2020/12/09 03:04:06;;;;;;;5.10;2.00;;;15.90;31.70;;;;;;5069269;28;20043;-69
2020/12/09 03:06:33;;;;;;;5.88;1.85;;;15.80;31.70;;;;;;5065759;28;20067;-68
2020/12/09 03:09:01;;;;;;;12.43;2.58;;;15.70;32.00;;;;;;5064956;28;20052;-69
2020/12/09 03:11:30;;;;;;;11.00;2.90;;;15.50;32.00;;;;;;5071060;28;20017;-69
2020/12/09 03:13:57;;;;;;;9.73;1.80;;;15.40;32.10;;;;;;5082045;28;20045;-69
2020/12/09 03:16:25;;;;;;;5.15;2.22;;;15.40;32.30;;;;;;5077589;28;20036;-68
2020/12/09 03:18:52;;;;;;;4.40;2.08;;;15.40;31.90;;;;;;5076214;28;20028;-69
2020/12/09 03:21:19;;;;;;;22.55;3.53;;;15.40;32.10;;;;;;5070829;28;20020;-69
2020/12/09 03:23:45;;;;;;;6.82;2.33;;;15.20;32.40;;;;;;5076535;28;20045;-69
2020/12/09 03:26:12;;;;;;;4.50;1.77;;;15.10;32.30;;;;;;5058399;28;20036;-69
2020/12/09 03:28:38;;;;;;;4.63;2.10;;;15.10;32.50;;;;;;5076381;28;20028;-69
2020/12/09 03:31:08;;;;;;;5.93;2.15;;;15.20;32.50;;;;;;5076746;28;20063;-69
2020/12/09 03:33:35;;;;;;;4.55;2.08;;;15.30;32.40;;;;;;5076170;28;20540;-69
2020/12/09 03:36:02;;;;;;;4.38;2.80;;;15.20;32.70;;;;;;5075986;28;20029;-69
2020/12/09 03:38:28;;;;;;;8.40;3.05;;;15.20;32.60;;;;;;5074061;28;20024;-69
2020/12/09 03:40:55;;;;;;;6.43;2.20;;;15.20;32.70;;;;;;5071237;28;20108;-69
2020/12/09 03:43:21;;;;;;;5.85;1.80;;;15.20;33.10;;;;;;5072713;28;20028;-69
2020/12/09 03:45:48;;;;;;;3.45;2.50;;;15.10;33.10;;;;;;5071963;28;20054;-68
2020/12/09 03:48:14;;;;;;;3.80;2.50;;;15.00;33.40;;;;;;5074283;28;20048;-69
2020/12/09 03:50:41;;;;;;;4.72;2.33;;;15.00;33.40;;;;;;5074566;28;20108;-69
2020/12/09 03:53:07;;;;;;;17.40;3.95;;;15.00;33.80;;;;;;5074862;28;20050;-69
2020/12/09 03:55:35;;;;;;;5.50;2.30;;;15.00;34.00;;;;;;5075778;28;20533;-69
2020/12/09 03:58:01;;;;;;;2.83;2.22;;;15.00;34.00;;;;;;5072163;28;20032;-70
2020/12/09 04:00:28;;;;;;;5.28;1.80;;;14.80;34.00;;;;;;5074734;28;20090;-70
2020/12/09 04:02:55;;;;;;;4.20;2.05;;;14.20;35.40;;;;;;5069905;28;20534;-70
2020/12/09 04:05:22;;;;;;;6.40;1.90;;;14.20;35.50;;;;;;5071330;28;20021;-70
2020/12/09 04:07:49;;;;;;;6.72;2.42;;;14.30;35.10;;;;;;5071180;28;20016;-70
2020/12/09 04:10:16;;;;;;;6.50;2.63;;;14.20;34.40;;;;;;5067312;28;20059;-70
2020/12/09 04:12:43;;;;;;;7.20;2.30;;;14.20;34.20;;;;;;5073102;28;20071;-70
2020/12/09 04:15:10;;;;;;;2.05;1.80;;;14.30;34.30;;;;;;5072777;28;20032;-70
2020/12/09 04:17:36;;;;;;;3.35;2.58;;;14.30;34.60;;;;;;5073657;28;20166;-70
2020/12/09 04:20:04;;;;;;;6.07;2.50;;;14.40;34.40;;;;;;5072018;28;20020;-71
2020/12/09 04:22:30;;;;;;;8.25;2.17;;;14.50;34.30;;;;;;5075567;28;20056;-70
2020/12/09 04:24:56;;;;;;;3.78;1.83;;;14.70;34.40;;;;;;5074541;28;20323;-71
2020/12/09 04:27:23;;;;;;;2.63;1.80;;;14.60;34.50;;;;;;5073449;28;20021;-71
2020/12/09 04:29:49;;;;;;;2.33;2.13;;;14.60;34.70;;;;;;5074147;28;20028;-71
2020/12/09 04:32:16;;;;;;;8.05;2.42;;;14.70;34.50;;;;;;5072600;28;20020;-71
2020/12/09 04:34:42;;;;;;;7.45;2.35;;;14.70;34.70;;;;;;5072665;28;20082;-71
2020/12/09 04:37:10;;;;;;;5.60;2.75;;;14.60;34.50;;;;;;5072955;28;20063;-71
2020/12/09 04:39:37;;;;;;;5.47;2.70;;;14.60;34.80;;;;;;5075413;28;20089;-71
2020/12/09 04:42:04;;;;;;;4.65;2.40;;;14.60;34.80;;;;;;5076246;28;20418;-71
2020/12/09 04:44:31;;;;;;;5.57;2.47;;;14.60;35.10;;;;;;5065855;28;20861;-70
2020/12/09 04:47:04;;;;;;;7.95;2.88;;;14.50;35.10;;;;;;5074213;28;20384;-70
2020/12/09 04:49:47;;;;;;;5.85;2.47;;;14.50;35.00;;;;;;5071363;28;20393;-69
2020/12/09 04:52:25;;;;;;;4.28;2.30;;;14.40;35.10;;;;;;5075513;28;20362;-69
2020/12/09 04:55:00;;;;;;;5.70;2.83;;;14.40;35.00;;;;;;5072604;28;20043;-69
2020/12/09 04:57:42;;;;;;;6.32;2.38;;;14.50;35.20;;;;;;5071880;28;20024;-70
2020/12/09 05:00:13;;;;;;;2.90;2.03;;;14.40;34.90;;;;;;5065276;28;20033;-69
2020/12/09 05:02:43;;;;;;;2.90;2.50;;;14.40;35.00;;;;;;5072039;28;20103;-69
2020/12/09 05:05:16;;;;;;;5.75;1.92;;;14.40;34.90;;;;;;5072141;28;20119;-69
2020/12/09 05:07:53;;;;;;;11.07;2.38;;;14.40;34.90;;;;;;5072229;28;20032;-69
2020/12/09 05:10:24;;;;;;;7.63;2.38;;;14.40;34.70;;;;;;5074334;28;20112;-69
2020/12/09 05:12:52;;;;;;;4.75;2.20;;;14.30;34.80;;;;;;5072041;28;20107;-69
2020/12/09 05:15:23;;;;;;;7.13;2.50;;;14.40;34.70;;;;;;5073590;28;20028;-69
2020/12/09 05:18:07;;;;;;;7.80;2.38;;;14.50;34.90;;;;;;5075224;28;20029;-69
2020/12/09 05:20:36;;;;;;;2.78;1.88;;;14.40;34.70;;;;;;5072163;28;20043;-69
2020/12/09 05:23:08;;;;;;;6.38;2.45;;;14.40;34.70;;;;;;5071423;28;20094;-69
2020/12/09 05:25:38;;;;;;;4.60;2.35;;;14.30;35.00;;;;;;5069383;28;20013;-69
2020/12/09 05:28:06;;;;;;;3.33;2.03;;;14.40;35.00;;;;;;5073354;28;20021;-69
2020/12/09 05:30:51;;;;;;;2.65;1.90;;;14.40;35.20;;;;;;5074789;28;20052;-69
2020/12/09 05:33:22;;;;;;;5.15;2.17;;;14.30;35.10;;;;;;5065575;28;20089;-69
2020/12/09 05:36:01;;;;;;;5.80;2.08;;;14.30;35.60;;;;;;5071003;28;20058;-68
2020/12/09 05:38:28;;;;;;;5.38;2.28;;;14.30;35.20;;;;;;5072637;28;20048;-69
2020/12/09 05:40:55;;;;;;;2.70;2.17;;;14.40;35.40;;;;;;5072270;28;20100;-69
2020/12/09 05:43:22;;;;;;;5.25;2.80;;;14.40;35.20;;;;;;5071893;28;20029;-69
2020/12/09 05:45:49;;;;;;;5.57;2.78;;;14.40;35.10;;;;;;5073549;28;20047;-69
2020/12/09 05:48:16;;;;;;;3.17;2.35;;;14.50;34.90;;;;;;5073167;28;20024;-69
2020/12/09 05:50:51;;;;;;;8.45;3.10;;;14.50;34.80;;;;;;5074844;28;20025;-69
2020/12/09 05:53:29;;;;;;;3.28;1.77;;;14.50;34.70;;;;;;5075823;28;20028;-69
2020/12/09 05:56:22;;;;;;;3.08;2.42;;;14.60;34.70;;;;;;5074178;28;20111;-69
2020/12/09 05:58:52;;;;;;;8.00;2.60;;;14.40;34.90;;;;;;5071574;28;20041;-69
2020/12/09 06:01:20;;;;;;;5.32;2.20;;;14.30;35.10;;;;;;5074064;28;20454;-69
2020/12/09 06:03:53;;;;;;;7.82;2.58;;;14.40;35.10;;;;;;5074709;28;20502;-70
2020/12/09 06:06:23;;;;;;;6.75;2.58;;;14.20;35.00;;;;;;5074633;28;20040;-71
2020/12/09 06:08:55;;;;;;;5.00;2.85;;;14.20;35.10;;;;;;5069952;28;20020;-69
2020/12/09 06:11:32;;;;;;;3.53;2.38;;;14.00;35.40;;;;;;5074302;28;20457;-70
2020/12/09 06:13:58;;;;;;;3.05;2.08;;;14.00;35.40;;;;;;5066903;28;20508;-69
2020/12/09 06:16:25;;;;;;;6.53;2.42;;;13.90;36.00;;;;;;5072377;28;20024;-69
2020/12/09 06:18:53;;;;;;;6.75;3.55;;;13.80;36.20;;;;;;5073838;28;20056;-69
2020/12/09 06:21:20;;;;;;;3.75;2.40;;;13.70;36.30;;;;;;5070824;28;20109;-69
2020/12/09 06:23:53;;;;;;;5.05;2.28;;;13.60;36.30;;;;;;5073171;28;20024;-70
2020/12/09 06:26:20;;;;;;;3.65;2.28;;;13.50;36.40;;;;;;5070728;28;20028;-70
2020/12/09 06:28:50;;;;;;;5.20;2.28;;;13.50;36.70;;;;;;5072393;28;20353;-69
2020/12/09 06:31:21;;;;;;;3.53;2.17;;;13.50;36.70;;;;;;5074013;28;20402;-69
2020/12/09 06:33:49;;;;;;;4.50;2.92;;;13.40;37.00;;;;;;5073901;28;20063;-69
2020/12/09 06:36:28;;;;;;;5.75;3.33;;;13.40;37.10;;;;;;5073308;28;20024;-69
2020/12/09 06:39:11;;;;;;;10.52;2.90;;;13.40;36.10;;;;;;5074338;28;20037;-69
2020/12/09 06:41:43;;;;;;;13.75;4.15;;;13.30;36.30;;;;;;5067986;28;20029;-69
2020/12/09 06:44:15;;;;;;;9.73;3.00;;;13.40;36.10;;;;;;5072305;28;20037;-69
2020/12/09 06:46:52;;;;;;;4.88;3.00;;;13.30;36.20;;;;;;5071753;28;20033;-69
2020/12/09 06:49:31;;;;;;;5.43;2.47;;;13.30;36.60;;;;;;5073586;28;20021;-69
2020/12/09 06:52:28;;;;;;;10.60;3.83;;;13.40;36.50;;;;;;5071015;28;20036;-69
2020/12/09 06:54:55;;;;;;;6.22;2.40;;;13.20;36.70;;;;;;5064618;28;20071;-69
2020/12/09 06:57:37;;;;;;;4.70;2.47;;;13.10;37.30;;;;;;5069338;28;20025;-69
2020/12/09 07:00:20;;;;;;;4.45;3.08;;;13.00;37.30;;;;;;5069144;28;20025;-69
2020/12/09 07:02:51;;;;;;;2.83;2.47;;;13.00;37.20;;;;;;5069062;28;20135;-69
2020/12/09 07:05:28;;;;;;;6.65;2.78;;;13.00;37.30;;;;;;5073240;28;20052;-71
2020/12/09 07:08:01;;;;;;;7.47;3.10;;;13.10;37.00;;;;;;5072750;28;20082;-69
2020/12/09 07:10:29;;;;;;;9.98;3.38;;;13.10;36.70;;;;;;5074375;28;20466;-69
2020/12/09 07:13:06;;;;;;;5.45;2.35;;;13.10;37.40;;;;;;5072352;28;20131;-69
2020/12/09 07:15:32;;;;;;;6.88;2.85;;;12.90;39.00;;;;;;5070248;28;20119;-69
2020/12/09 07:17:59;;;;;;;6.90;3.25;;;13.00;37.70;;;;;;5068336;28;20127;-69
2020/12/09 07:20:25;;;;;;;7.00;3.85;;;13.00;37.00;;;;;;5073147;28;20094;-70
2020/12/09 07:22:52;;;;;;;8.32;3.75;;;13.10;37.00;;;;;;5071394;28;20476;-69
2020/12/09 07:25:18;;;;;;;17.73;4.82;;;13.10;37.60;;;;;;5070280;28;20029;-69
2020/12/09 07:27:46;;;;;;;5.80;2.58;;;13.40;37.40;;;;;;5073772;28;20020;-69
2020/12/09 07:30:15;;;;;;;8.55;3.03;;;13.10;37.50;;;;;;5070229;28;20406;-69
2020/12/09 07:32:42;;;;;;;6.95;2.92;;;13.00;37.80;;;;;;5069993;28;20497;-69
2020/12/09 07:35:12;;;;;;;4.57;2.38;;;12.80;38.50;;;;;;5069110;28;20048;-69
2020/12/09 07:37:42;;;;;;;7.22;3.00;;;12.80;38.20;;;;;;5067044;28;20036;-69
2020/12/09 07:40:16;;;;;;;11.30;3.55;;;13.00;37.60;;;;;;5066924;28;20115;-69
2020/12/09 07:42:43;;;;;;;3.80;2.10;;;13.00;37.50;;;;;;5072383;28;20464;-69
2020/12/09 07:45:16;;;;;;;7.82;3.05;;;13.00;37.70;;;;;;5072843;28;20127;-69
2020/12/09 07:47:43;;;;;;;8.77;3.08;;;13.00;37.20;;;;;;5070793;28;20043;-69
2020/12/09 07:50:10;;;;;;;9.55;2.83;;;13.20;37.30;;;;;;5071121;28;20454;-69
2020/12/09 07:52:39;;;;;;;8.82;3.28;;;13.40;37.10;;;;;;5072423;28;20389;-69
2020/12/09 07:55:15;;;;;;;8.02;3.45;;;13.40;37.10;;;;;;5074296;28;20454;-69
2020/12/09 07:57:42;;;;;;;9.90;2.88;;;13.20;37.20;;;;;;5072546;28;20047;-69
2020/12/09 08:00:14;;;;;;;8.65;3.75;;;13.30;37.10;;;;;;5079308;28;20028;-69
2020/12/09 08:02:43;;;;;;;4.45;2.67;;;13.30;37.20;;;;;;5080198;28;20031;-69
2020/12/09 08:05:23;;;;;;;5.35;3.25;;;13.30;37.20;;;;;;5076217;28;20051;-69
2020/12/09 08:08:12;;;;;;;6.45;2.97;;;13.40;37.10;;;;;;5076511;28;20032;-69
2020/12/09 08:10:43;;;;;;;5.25;3.03;;;13.40;37.00;;;;;;5078942;28;20085;-69
2020/12/09 08:13:13;;;;;;;6.10;3.38;;;13.40;37.00;;;;;;5081261;28;20035;-69
2020/12/09 08:15:42;;;;;;;12.40;3.30;;;13.30;36.90;;;;;;5075639;28;20090;-69
2020/12/09 08:18:29;;;;;;;5.95;3.03;;;13.40;36.90;;;;;;5069831;28;20039;-69
2020/12/09 08:20:56;;;;;;;9.45;3.25;;;13.40;36.90;;;;;;5072567;28;20040;-69
2020/12/09 08:23:37;;;;;;;7.85;3.13;;;13.20;37.10;;;;;;5074716;28;20462;-69
2020/12/09 08:26:03;;;;;;;9.45;3.38;;;13.30;37.30;;;;;;5073649;28;20058;-69
2020/12/09 08:28:33;;;;;;;10.27;3.40;;;13.40;37.10;;;;;;5075000;28;20377;-69
2020/12/09 08:31:00;;;;;;;7.03;3.40;;;13.30;37.10;;;;;;5075889;28;20059;-69
2020/12/09 08:33:30;;;;;;;6.85;3.35;;;13.30;37.00;;;;;;5075946;28;20029;-69
2020/12/09 08:36:06;;;;;;;7.85;3.00;;;13.50;37.00;;;;;;5076057;28;20331;-69
2020/12/09 08:38:46;;;;;;;7.50;3.78;;;13.40;37.10;;;;;;5069130;28;20039;-69
2020/12/09 08:41:16;;;;;;;10.45;3.28;;;13.30;37.00;;;;;;5070600;28;20029;-70
2020/12/09 08:43:44;;;;;;;9.13;4.03;;;13.30;37.80;;;;;;5076086;28;20051;-70
2020/12/09 08:46:12;;;;;;;5.63;2.95;;;13.10;37.40;;;;;;5079220;28;20036;-70
2020/12/09 08:48:39;;;;;;;11.40;3.42;;;13.10;37.90;;;;;;5076447;28;20028;-70
2020/12/09 08:51:07;;;;;;;6.40;3.58;;;13.00;38.00;;;;;;5076476;28;20035;-70
2020/12/09 08:53:34;;;;;;;6.70;2.53;;;13.00;38.00;;;;;;5076669;28;20099;-70
2020/12/09 08:56:01;;;;;;;3.85;2.90;;;12.90;38.30;;;;;;5071260;28;20028;-70
2020/12/09 08:58:27;;;;;;;10.57;3.10;;;12.90;38.30;;;;;;5073278;28;20115;-69
2020/12/09 09:00:53;;;;;;;4.65;2.88;;;12.80;38.30;;;;;;5069659;28;20028;-69
2020/12/09 09:03:24;;;;;;;11.50;3.97;;;12.90;38.00;;;;;;5073862;28;20469;-69
2020/12/09 09:05:57;;;;;;;9.45;3.33;;;13.10;37.70;;;;;;5072795;28;20068;-69
2020/12/09 09:08:23;;;;;;;8.73;2.88;;;12.90;38.00;;;;;;5072694;28;20023;-69
2020/12/09 09:10:50;;;;;;;5.50;2.47;;;12.60;39.00;;;;;;5073818;28;20441;-69
2020/12/09 09:13:16;;;;;;;5.40;2.60;;;12.60;38.70;;;;;;5081985;28;20036;-69
2020/12/09 09:15:43;;;;;;;14.60;4.50;;;12.70;38.60;;;;;;5071917;28;20056;-69
2020/12/09 09:18:10;;;;;;;11.38;3.28;;;12.80;38.10;;;;;;5073589;28;20024;-69
2020/12/09 09:20:37;;;;;;;7.53;3.30;;;12.90;37.90;;;;;;5066605;28;20032;-69
2020/12/09 09:23:05;;;;;;;9.75;4.05;;;12.80;38.60;;;;;;5074607;28;20021;-69
2020/12/09 09:25:33;;;;;;;5.45;2.40;;;12.70;38.80;;;;;;5072179;28;20148;-69
2020/12/09 09:27:59;;;;;;;5.28;3.20;;;12.60;38.60;;;;;;5078098;28;20096;-69
2020/12/09 09:30:26;;;;;;;6.03;3.20;;;12.60;39.40;;;;;;5074370;28;20099;-69
2020/12/09 09:32:52;;;;;;;9.45;3.40;;;12.50;39.20;;;;;;5075185;28;20377;-69
2020/12/09 09:35:19;;;;;;;8.90;3.80;;;12.40;39.30;;;;;;5073183;28;20099;-70
2020/12/09 09:37:46;;;;;;;5.78;3.45;;;12.40;39.30;;;;;;5074710;28;20016;-69
2020/12/09 09:40:13;;;;;;;6.72;3.15;;;12.40;38.00;;;;;;5074841;28;20361;-69
2020/12/09 09:42:40;;;;;;;11.02;4.00;;;12.60;38.60;;;;;;5073747;28;20024;-69
2020/12/09 09:45:09;;;;;;;10.82;3.45;;;12.60;38.50;;;;;;5071806;28;20020;-69
2020/12/09 09:47:36;;;;;;;9.85;3.88;;;12.40;39.00;;;;;;5075225;28;20046;-69
2020/12/09 09:50:04;;;;;;;7.13;3.65;;;12.20;39.10;;;;;;5079049;28;20020;-69
2020/12/09 09:52:31;;;;;;;8.40;3.85;;;12.20;39.70;;;;;;5074931;28;20028;-69
2020/12/09 09:54:57;;;;;;;9.90;4.10;;;12.30;39.10;;;;;;5074103;28;20028;-69
2020/12/09 09:57:23;;;;;;;6.97;3.92;;;12.20;39.30;;;;;;5071198;28;20446;-69
2020/12/09 09:59:51;;;;;;;13.43;4.05;;;12.10;39.50;;;;;;5074137;28;20040;-69
2020/12/09 10:02:18;;;;;;;8.50;3.38;;;12.10;39.10;;;;;;5073588;28;20024;-69
2020/12/09 10:04:44;;;;;;;6.95;2.97;;;12.10;39.70;;;;;;5074500;28;20028;-69
2020/12/09 10:07:11;;;;;;;11.82;4.13;;;12.00;39.70;;;;;;5075496;28;20017;-69
2020/12/09 10:09:38;;;;;;;8.68;3.10;;;12.00;38.70;;;;;;5074146;28;20024;-69
2020/12/09 10:12:04;;;;;;;9.88;3.88;;;12.00;39.80;;;;;;5075270;28;20031;-69
2020/12/09 10:14:32;;;;;;;8.50;3.85;;;11.80;41.10;;;;;;5075133;28;20029;-69
2020/12/09 10:17:00;;;;;;;8.30;3.40;;;11.60;41.10;;;;;;5074179;28;20023;-69
2020/12/09 10:19:26;;;;;;;11.68;3.58;;;11.60;40.90;;;;;;5073974;28;20028;-69
2020/12/09 10:21:53;;;;;;;7.60;4.03;;;11.50;41.00;;;;;;5080874;28;20049;-69
2020/12/09 10:24:19;;;;;;;8.57;3.35;;;11.60;40.50;;;;;;5088289;28;20025;-69
2020/12/09 10:26:46;;;;;;;7.47;3.92;;;11.50;40.90;;;;;;5063827;28;20028;-69
2020/12/09 10:29:12;;;;;;;11.93;4.55;;;11.50;39.90;;;;;;5073047;28;20466;-69
2020/12/09 10:31:45;;;;;;;10.10;4.93;;;11.40;41.00;;;;;;5075061;28;20074;-69
2020/12/09 10:34:14;;;;;;;7.18;3.30;;;11.40;41.10;;;;;;5074714;28;20024;-69
2020/12/09 10:36:47;;;;;;;6.72;3.38;;;11.30;41.10;;;;;;5074630;28;20054;-69
2020/12/09 10:39:14;;;;;;;7.07;3.55;;;11.30;41.40;;;;;;5071239;28;20028;-69
2020/12/09 10:41:42;;;;;;;7.82;3.60;;;11.20;41.30;;;;;;5082362;28;20089;-69
2020/12/09 10:44:09;;;;;;;10.43;4.72;;;11.20;41.50;;;;;;5094935;28;20028;-69
2020/12/09 10:46:36;;;;;;;18.83;6.65;;;11.20;40.90;;;;;;5085070;28;20024;-69
2020/12/09 10:49:05;;;;;;;13.13;5.20;;;11.20;41.60;;;;;;5080525;28;20024;-69
2020/12/09 10:51:31;;;;;;;13.20;4.35;;;11.20;40.40;;;;;;5107654;28;20521;-69
2020/12/09 10:53:58;;;;;;;7.40;3.92;;;11.10;41.80;;;;;;5091753;28;20331;-69
2020/12/09 10:56:29;;;;;;;11.35;4.30;;;11.00;42.20;;;;;;5090740;28;20027;-69
2020/12/09 10:58:56;;;;;;;11.88;4.82;;;10.90;41.90;;;;;;5097125;28;20024;-69
2020/12/09 11:01:26;;;;;;;5.07;3.35;;;10.90;42.50;;;;;;5096188;28;20020;-69
2020/12/09 11:03:54;;;;;;;9.20;3.95;;;10.90;42.10;;;;;;5108090;28;20021;-69
2020/12/09 11:06:32;;;;;;;7.90;3.55;;;11.00;40.10;;;;;;5102229;28;20052;-69
2020/12/09 11:08:59;;;;;;;7.85;4.15;;;10.90;41.70;;;;;;5098583;28;20085;-69
2020/12/09 11:11:26;;;;;;;10.40;4.13;;;10.80;42.40;;;;;;5118731;28;20055;-69
2020/12/09 11:13:53;;;;;;;8.85;3.83;;;10.70;42.30;;;;;;5117073;28;20012;-69
2020/12/09 11:16:21;;;;;;;7.75;3.95;;;10.70;40.80;;;;;;5116961;28;20070;-69
2020/12/09 11:18:49;;;;;;;11.73;4.18;;;10.60;42.50;;;;;;5117671;28;20012;-69
2020/12/09 11:21:20;;;;;;;9.43;4.65;;;10.60;41.10;;;;;;5116512;28;20027;-69
2020/12/09 11:23:48;;;;;;;12.13;4.47;;;10.60;41.60;;;;;;5111229;28;20094;-69
2020/12/09 11:26:19;;;;;;;12.70;3.55;;;10.60;40.60;;;;;;5110798;28;20047;-69
2020/12/09 11:28:46;;;;;;;11.43;4.65;;;10.60;41.70;;;;;;5126194;28;20022;-69
2020/12/09 11:31:12;;;;;;;7.20;3.40;;;10.50;41.70;;;;;;5115119;28;20019;-69
2020/12/09 11:33:39;;;;;;;16.73;5.10;;;10.50;42.80;;;;;;5119367;28;20024;-69
2020/12/09 11:36:06;;;;;;;21.02;4.93;;;10.40;43.00;;;;;;5122556;28;20024;-69
2020/12/09 11:38:32;;;;;;;12.38;5.55;;;10.50;41.10;;;;;;5121711;28;20036;-69
2020/12/09 11:40:59;;;;;;;13.07;4.85;;;10.60;41.70;;;;;;5104587;28;20518;-69
2020/12/09 11:43:27;;;;;;;13.07;5.65;;;10.60;41.70;;;;;;5109918;28;20054;-69
2020/12/09 11:45:54;;;;;;;13.00;4.53;;;10.60;43.50;;;;;;5093508;28;20071;-69
2020/12/09 11:48:21;;;;;;;9.38;4.38;;;10.50;43.30;;;;;;5096811;28;20028;-69
2020/12/09 11:50:48;;;;;;;15.57;4.82;;;10.40;43.80;;;;;;5098133;28;20012;-69
2020/12/09 11:53:15;;;;;;;12.45;4.53;;;10.40;41.40;;;;;;5098655;28;20028;-69
2020/12/09 11:55:41;;;;;;;17.17;4.85;;;10.50;41.40;;;;;;5098917;28;20055;-69
2020/12/09 11:58:08;;;;;;;14.93;5.70;;;10.50;42.70;;;;;;5098183;28;20461;-69
2020/12/09 12:00:35;;;;;;;13.48;5.38;;;10.40;41.80;;;;;;5096912;28;20465;-69
2020/12/09 12:03:01;;;;;;;6.82;3.47;;;10.40;42.50;;;;;;5090715;28;20020;-69
2020/12/09 12:05:29;;;;;;;13.35;4.47;;;10.20;43.60;;;;;;5077793;28;20020;-69
2020/12/09 12:07:55;;;;;;;17.05;4.43;;;10.10;43.60;;;;;;5091904;28;20115;-69
2020/12/09 12:10:22;;;;;;;14.45;6.20;;;10.10;43.10;;;;;;5093127;28;20027;-69
2020/12/09 12:12:48;;;;;;;16.35;5.95;;;10.10;41.90;;;;;;5097901;28;20054;-69
2020/12/09 12:15:15;;;;;;;12.18;5.25;;;10.10;42.80;;;;;;5097164;28;20036;-69
2020/12/09 12:17:41;;;;;;;15.80;4.70;;;10.10;42.30;;;;;;5096707;28;20089;-69
2020/12/09 12:20:08;;;;;;;12.98;5.43;;;10.10;43.00;;;;;;5097596;28;20032;-69
2020/12/09 12:22:34;;;;;;;11.38;5.03;;;10.10;42.80;;;;;;5097412;28;20024;-69
2020/12/09 12:25:01;;;;;;;13.88;5.05;;;10.10;43.20;;;;;;5097110;28;20453;-69
2020/12/09 12:27:27;;;;;;;15.90;5.10;;;10.30;44.50;;;;;;5097365;28;20327;-69
2020/12/09 12:29:53;;;;;;;16.42;6.70;;;10.60;44.80;;;;;;5097558;28;20145;-69
2020/12/09 12:32:20;;;;;;;9.65;4.97;;;10.60;44.30;;;;;;5096608;28;20468;-69
2020/12/09 12:34:46;;;;;;;9.75;4.65;;;10.40;42.80;;;;;;5092814;28;20103;-69
2020/12/09 12:37:12;;;;;;;14.75;4.82;;;10.20;44.40;;;;;;5097096;28;20023;-69
2020/12/09 12:39:39;;;;;;;12.15;5.05;;;10.10;45.00;;;;;;5097370;28;20028;-70
2020/12/09 12:42:05;;;;;;;15.05;4.75;;;10.00;44.80;;;;;;5096953;28;20438;-69
2020/12/09 12:44:32;;;;;;;11.68;5.03;;;10.00;42.90;;;;;;5095971;28;20036;-69
2020/12/09 12:46:58;;;;;;;11.40;5.40;;;10.00;43.20;;;;;;5096518;28;20020;-69
2020/12/09 12:49:24;;;;;;;12.98;4.85;;;10.00;43.30;;;;;;5096616;28;20035;-69
2020/12/09 12:51:51;;;;;;;22.63;6.03;;;9.90;43.30;;;;;;5096710;28;20093;-69